sensor_id;sensor_type;location;lat;lon;timestamp;P1;durP1;ratioP1;P2;durP2;ratioP2
14294;SDS011;7231;59.370;18.016;2022-12-29T00:02:17;106.53;;;8.10;;
14294;SDS011;7231;59.370;18.016;2022-12-29T00:04:45;90.60;;;6.57;;
14294;SDS011;7231;59.370;18.016;2022-12-29T00:07:13;106.07;;;7.57;;
14294;SDS011;7231;59.370;18.016;2022-12-29T00:09:41;74.50;;;6.57;;
14294;SDS011;7231;59.370;18.016;2022-12-29T00:12:10;64.33;;;6.27;;
14294;SDS011;7231;59.370;18.016;2022-12-29T00:14:38;64.03;;;6.50;;
14294;SDS011;7231;59.370;18.016;2022-12-29T00:17:24;82.90;;;7.57;;
14294;SDS011;7231;59.370;18.016;2022-12-29T00:19:52;92.73;;;6.03;;
14294;SDS011;7231;59.370;18.016;2022-12-29T00:22:37;104.77;;;7.13;;
14294;SDS011;7231;59.370;18.016;2022-12-29T00:25:37;103.27;;;8.17;;
14294;SDS011;7231;59.370;18.016;2022-12-29T00:28:24;53.70;;;6.13;;
14294;SDS011;7231;59.370;18.016;2022-12-29T00:31:10;54.73;;;5.27;;
14294;SDS011;7231;59.370;18.016;2022-12-29T00:33:57;38.37;;;5.77;;
14294;SDS011;7231;59.370;18.016;2022-12-29T00:36:43;60.70;;;5.83;;
14294;SDS011;7231;59.370;18.016;2022-12-29T00:39:12;72.60;;;5.67;;
14294;SDS011;7231;59.370;18.016;2022-12-29T00:42:02;57.23;;;5.20;;
14294;SDS011;7231;59.370;18.016;2022-12-29T00:44:50;98.77;;;6.77;;
14294;SDS011;7231;59.370;18.016;2022-12-29T00:47:17;71.80;;;5.60;;
14294;SDS011;7231;59.370;18.016;2022-12-29T00:49:45;48.10;;;5.23;;
14294;SDS011;7231;59.370;18.016;2022-12-29T00:52:13;78.13;;;6.13;;
14294;SDS011;7231;59.370;18.016;2022-12-29T00:54:41;87.40;;;6.43;;
14294;SDS011;7231;59.370;18.016;2022-12-29T00:57:11;61.70;;;5.67;;
14294;SDS011;7231;59.370;18.016;2022-12-29T00:59:40;36.27;;;4.80;;
14294;SDS011;7231;59.370;18.016;2022-12-29T01:02:10;75.80;;;6.27;;
14294;SDS011;7231;59.370;18.016;2022-12-29T01:04:38;93.07;;;6.80;;
14294;SDS011;7231;59.370;18.016;2022-12-29T01:07:06;95.60;;;8.30;;
14294;SDS011;7231;59.370;18.016;2022-12-29T01:09:34;90.13;;;7.53;;
14294;SDS011;7231;59.370;18.016;2022-12-29T01:12:19;112.93;;;7.97;;
14294;SDS011;7231;59.370;18.016;2022-12-29T01:15:07;98.40;;;7.70;;
14294;SDS011;7231;59.370;18.016;2022-12-29T01:17:37;54.47;;;5.90;;
14294;SDS011;7231;59.370;18.016;2022-12-29T01:20:06;65.93;;;6.80;;
14294;SDS011;7231;59.370;18.016;2022-12-29T01:22:34;68.60;;;6.80;;
14294;SDS011;7231;59.370;18.016;2022-12-29T01:25:02;57.53;;;6.47;;
14294;SDS011;7231;59.370;18.016;2022-12-29T01:27:31;104.50;;;7.20;;
14294;SDS011;7231;59.370;18.016;2022-12-29T01:29:58;104.93;;;7.53;;
14294;SDS011;7231;59.370;18.016;2022-12-29T01:32:26;47.77;;;7.03;;
14294;SDS011;7231;59.370;18.016;2022-12-29T01:34:55;98.40;;;6.97;;
14294;SDS011;7231;59.370;18.016;2022-12-29T01:37:24;66.60;;;6.90;;
14294;SDS011;7231;59.370;18.016;2022-12-29T01:39:52;44.30;;;6.13;;
14294;SDS011;7231;59.370;18.016;2022-12-29T01:42:22;66.33;;;6.43;;
14294;SDS011;7231;59.370;18.016;2022-12-29T01:44:52;84.20;;;7.07;;
14294;SDS011;7231;59.370;18.016;2022-12-29T01:47:26;176.13;;;10.90;;
14294;SDS011;7231;59.370;18.016;2022-12-29T01:50:03;64.43;;;6.27;;
14294;SDS011;7231;59.370;18.016;2022-12-29T01:52:35;77.00;;;6.90;;
14294;SDS011;7231;59.370;18.016;2022-12-29T01:55:08;78.63;;;7.70;;
14294;SDS011;7231;59.370;18.016;2022-12-29T01:57:39;44.37;;;6.90;;
14294;SDS011;7231;59.370;18.016;2022-12-29T02:00:12;48.70;;;6.30;;
14294;SDS011;7231;59.370;18.016;2022-12-29T02:02:44;95.03;;;7.63;;
14294;SDS011;7231;59.370;18.016;2022-12-29T02:05:20;57.27;;;6.47;;
14294;SDS011;7231;59.370;18.016;2022-12-29T02:07:52;79.37;;;7.70;;
14294;SDS011;7231;59.370;18.016;2022-12-29T02:10:21;66.43;;;6.57;;
14294;SDS011;7231;59.370;18.016;2022-12-29T02:12:51;37.27;;;6.40;;
14294;SDS011;7231;59.370;18.016;2022-12-29T02:15:19;52.10;;;6.73;;
14294;SDS011;7231;59.370;18.016;2022-12-29T02:17:58;75.70;;;8.97;;
14294;SDS011;7231;59.370;18.016;2022-12-29T02:20:41;54.33;;;7.13;;
14294;SDS011;7231;59.370;18.016;2022-12-29T02:23:41;73.83;;;7.50;;
14294;SDS011;7231;59.370;18.016;2022-12-29T02:26:27;34.53;;;6.30;;
14294;SDS011;7231;59.370;18.016;2022-12-29T02:29:17;47.77;;;8.30;;
14294;SDS011;7231;59.370;18.016;2022-12-29T02:32:03;52.43;;;7.70;;
14294;SDS011;7231;59.370;18.016;2022-12-29T02:34:37;22.27;;;6.97;;
14294;SDS011;7231;59.370;18.016;2022-12-29T02:37:17;20.87;;;6.80;;
14294;SDS011;7231;59.370;18.016;2022-12-29T02:39:52;16.70;;;6.33;;
14294;SDS011;7231;59.370;18.016;2022-12-29T02:42:30;49.30;;;8.83;;
14294;SDS011;7231;59.370;18.016;2022-12-29T02:45:04;24.70;;;7.20;;
14294;SDS011;7231;59.370;18.016;2022-12-29T02:47:38;24.23;;;8.17;;
14294;SDS011;7231;59.370;18.016;2022-12-29T02:50:12;28.17;;;8.20;;
14294;SDS011;7231;59.370;18.016;2022-12-29T02:52:46;31.97;;;9.23;;
14294;SDS011;7231;59.370;18.016;2022-12-29T02:55:17;25.97;;;7.87;;
14294;SDS011;7231;59.370;18.016;2022-12-29T02:57:44;27.97;;;9.10;;
14294;SDS011;7231;59.370;18.016;2022-12-29T03:00:13;28.50;;;9.33;;
14294;SDS011;7231;59.370;18.016;2022-12-29T03:05:57;21.40;;;8.23;;
14294;SDS011;7231;59.370;18.016;2022-12-29T03:08:44;22.50;;;9.20;;
14294;SDS011;7231;59.370;18.016;2022-12-29T03:11:19;19.37;;;8.33;;
14294;SDS011;7231;59.370;18.016;2022-12-29T03:14:14;17.77;;;8.37;;
14294;SDS011;7231;59.370;18.016;2022-12-29T03:17:07;21.63;;;8.60;;
14294;SDS011;7231;59.370;18.016;2022-12-29T03:19:40;18.53;;;8.03;;
14294;SDS011;7231;59.370;18.016;2022-12-29T03:22:16;20.03;;;9.00;;
14294;SDS011;7231;59.370;18.016;2022-12-29T03:24:57;18.53;;;8.73;;
14294;SDS011;7231;59.370;18.016;2022-12-29T03:27:29;19.97;;;8.80;;
14294;SDS011;7231;59.370;18.016;2022-12-29T03:30:00;19.80;;;7.47;;
14294;SDS011;7231;59.370;18.016;2022-12-29T03:32:33;20.83;;;7.90;;
14294;SDS011;7231;59.370;18.016;2022-12-29T03:35:05;23.90;;;9.10;;
14294;SDS011;7231;59.370;18.016;2022-12-29T03:37:36;18.37;;;8.23;;
14294;SDS011;7231;59.370;18.016;2022-12-29T03:40:08;19.95;;;8.23;;
14294;SDS011;7231;59.370;18.016;2022-12-29T03:42:37;19.27;;;8.03;;
14294;SDS011;7231;59.370;18.016;2022-12-29T03:45:07;19.38;;;8.57;;
14294;SDS011;7231;59.370;18.016;2022-12-29T03:47:37;21.47;;;8.37;;
14294;SDS011;7231;59.370;18.016;2022-12-29T03:50:07;21.07;;;8.53;;
14294;SDS011;7231;59.370;18.016;2022-12-29T03:52:35;18.87;;;8.00;;
14294;SDS011;7231;59.370;18.016;2022-12-29T03:55:04;22.50;;;9.38;;
14294;SDS011;7231;59.370;18.016;2022-12-29T03:57:32;19.55;;;8.43;;
14294;SDS011;7231;59.370;18.016;2022-12-29T04:00:00;24.60;;;8.10;;
14294;SDS011;7231;59.370;18.016;2022-12-29T04:02:28;20.23;;;8.07;;
14294;SDS011;7231;59.370;18.016;2022-12-29T04:04:57;17.93;;;8.33;;
14294;SDS011;7231;59.370;18.016;2022-12-29T04:07:26;19.13;;;7.77;;
14294;SDS011;7231;59.370;18.016;2022-12-29T04:09:54;16.03;;;8.60;;
14294;SDS011;7231;59.370;18.016;2022-12-29T04:12:22;16.17;;;8.03;;
14294;SDS011;7231;59.370;18.016;2022-12-29T04:14:50;16.67;;;7.83;;
14294;SDS011;7231;59.370;18.016;2022-12-29T04:17:18;16.33;;;8.00;;
14294;SDS011;7231;59.370;18.016;2022-12-29T04:19:46;15.45;;;7.53;;
14294;SDS011;7231;59.370;18.016;2022-12-29T04:22:14;23.67;;;9.40;;
14294;SDS011;7231;59.370;18.016;2022-12-29T04:24:45;17.08;;;8.05;;
14294;SDS011;7231;59.370;18.016;2022-12-29T04:27:13;12.75;;;7.60;;
14294;SDS011;7231;59.370;18.016;2022-12-29T04:29:41;15.25;;;8.07;;
14294;SDS011;7231;59.370;18.016;2022-12-29T04:32:09;17.20;;;8.30;;
14294;SDS011;7231;59.370;18.016;2022-12-29T04:34:37;15.82;;;9.18;;
14294;SDS011;7231;59.370;18.016;2022-12-29T04:37:05;14.80;;;8.68;;
14294;SDS011;7231;59.370;18.016;2022-12-29T04:39:33;14.45;;;9.32;;
14294;SDS011;7231;59.370;18.016;2022-12-29T04:42:02;18.27;;;8.68;;
14294;SDS011;7231;59.370;18.016;2022-12-29T04:44:30;16.55;;;9.20;;
14294;SDS011;7231;59.370;18.016;2022-12-29T04:46:58;16.38;;;8.38;;
14294;SDS011;7231;59.370;18.016;2022-12-29T04:49:26;16.40;;;8.85;;
14294;SDS011;7231;59.370;18.016;2022-12-29T04:51:53;15.02;;;8.95;;
14294;SDS011;7231;59.370;18.016;2022-12-29T04:54:21;20.33;;;8.82;;
14294;SDS011;7231;59.370;18.016;2022-12-29T04:56:49;14.20;;;9.00;;
14294;SDS011;7231;59.370;18.016;2022-12-29T04:59:19;15.80;;;9.15;;
14294;SDS011;7231;59.370;18.016;2022-12-29T05:01:47;12.85;;;7.80;;
14294;SDS011;7231;59.370;18.016;2022-12-29T05:04:14;11.50;;;7.68;;
14294;SDS011;7231;59.370;18.016;2022-12-29T05:06:42;13.27;;;8.68;;
14294;SDS011;7231;59.370;18.016;2022-12-29T05:09:10;13.25;;;8.15;;
14294;SDS011;7231;59.370;18.016;2022-12-29T05:11:38;12.60;;;8.10;;
14294;SDS011;7231;59.370;18.016;2022-12-29T05:14:06;17.77;;;8.77;;
14294;SDS011;7231;59.370;18.016;2022-12-29T05:16:35;16.63;;;8.98;;
14294;SDS011;7231;59.370;18.016;2022-12-29T05:19:03;14.48;;;8.25;;
14294;SDS011;7231;59.370;18.016;2022-12-29T05:21:31;13.88;;;8.07;;
14294;SDS011;7231;59.370;18.016;2022-12-29T05:23:59;15.05;;;8.05;;
14294;SDS011;7231;59.370;18.016;2022-12-29T05:26:27;16.73;;;8.05;;
14294;SDS011;7231;59.370;18.016;2022-12-29T05:28:55;14.15;;;8.02;;
14294;SDS011;7231;59.370;18.016;2022-12-29T05:31:23;14.20;;;7.80;;
14294;SDS011;7231;59.370;18.016;2022-12-29T05:33:52;16.58;;;7.88;;
14294;SDS011;7231;59.370;18.016;2022-12-29T05:36:20;16.70;;;8.07;;
14294;SDS011;7231;59.370;18.016;2022-12-29T05:38:48;13.82;;;7.93;;
14294;SDS011;7231;59.370;18.016;2022-12-29T05:41:16;15.43;;;8.63;;
14294;SDS011;7231;59.370;18.016;2022-12-29T05:43:44;13.60;;;8.23;;
14294;SDS011;7231;59.370;18.016;2022-12-29T05:46:12;13.73;;;8.23;;
14294;SDS011;7231;59.370;18.016;2022-12-29T05:48:40;15.55;;;8.50;;
14294;SDS011;7231;59.370;18.016;2022-12-29T05:51:09;15.40;;;8.35;;
14294;SDS011;7231;59.370;18.016;2022-12-29T05:53:37;14.73;;;8.68;;
14294;SDS011;7231;59.370;18.016;2022-12-29T05:56:05;18.80;;;9.23;;
14294;SDS011;7231;59.370;18.016;2022-12-29T05:58:33;15.15;;;8.45;;
14294;SDS011;7231;59.370;18.016;2022-12-29T06:01:01;11.85;;;7.82;;
14294;SDS011;7231;59.370;18.016;2022-12-29T06:03:29;13.52;;;7.95;;
14294;SDS011;7231;59.370;18.016;2022-12-29T06:05:57;20.20;;;9.07;;
14294;SDS011;7231;59.370;18.016;2022-12-29T06:08:27;13.35;;;7.85;;
14294;SDS011;7231;59.370;18.016;2022-12-29T06:10:54;18.92;;;8.32;;
14294;SDS011;7231;59.370;18.016;2022-12-29T06:13:23;16.45;;;7.97;;
14294;SDS011;7231;59.370;18.016;2022-12-29T06:15:50;12.32;;;8.15;;
14294;SDS011;7231;59.370;18.016;2022-12-29T06:18:19;15.65;;;7.32;;
14294;SDS011;7231;59.370;18.016;2022-12-29T06:20:48;17.90;;;8.32;;
14294;SDS011;7231;59.370;18.016;2022-12-29T06:23:16;15.13;;;8.45;;
14294;SDS011;7231;59.370;18.016;2022-12-29T06:25:47;13.73;;;7.78;;
14294;SDS011;7231;59.370;18.016;2022-12-29T06:28:15;16.55;;;7.40;;
14294;SDS011;7231;59.370;18.016;2022-12-29T06:30:43;20.88;;;7.60;;
14294;SDS011;7231;59.370;18.016;2022-12-29T06:33:12;18.75;;;7.57;;
14294;SDS011;7231;59.370;18.016;2022-12-29T06:35:41;20.70;;;7.90;;
14294;SDS011;7231;59.370;18.016;2022-12-29T06:38:09;18.83;;;7.15;;
14294;SDS011;7231;59.370;18.016;2022-12-29T06:40:37;14.57;;;6.93;;
14294;SDS011;7231;59.370;18.016;2022-12-29T06:43:07;15.57;;;7.05;;
14294;SDS011;7231;59.370;18.016;2022-12-29T06:45:35;18.90;;;8.35;;
14294;SDS011;7231;59.370;18.016;2022-12-29T06:48:06;15.45;;;6.97;;
14294;SDS011;7231;59.370;18.016;2022-12-29T06:50:34;19.00;;;7.82;;
14294;SDS011;7231;59.370;18.016;2022-12-29T06:53:02;17.40;;;7.53;;
14294;SDS011;7231;59.370;18.016;2022-12-29T06:55:30;16.90;;;8.23;;
14294;SDS011;7231;59.370;18.016;2022-12-29T06:57:58;18.27;;;8.50;;
14294;SDS011;7231;59.370;18.016;2022-12-29T07:00:28;17.90;;;7.57;;
14294;SDS011;7231;59.370;18.016;2022-12-29T07:02:56;24.67;;;8.52;;
14294;SDS011;7231;59.370;18.016;2022-12-29T07:05:25;23.48;;;9.20;;
14294;SDS011;7231;59.370;18.016;2022-12-29T07:07:54;29.45;;;9.65;;
14294;SDS011;7231;59.370;18.016;2022-12-29T07:10:22;27.10;;;9.23;;
14294;SDS011;7231;59.370;18.016;2022-12-29T07:12:50;28.00;;;10.32;;
14294;SDS011;7231;59.370;18.016;2022-12-29T07:15:18;24.90;;;8.63;;
14294;SDS011;7231;59.370;18.016;2022-12-29T07:17:47;31.05;;;10.00;;
14294;SDS011;7231;59.370;18.016;2022-12-29T07:20:16;27.10;;;8.77;;
14294;SDS011;7231;59.370;18.016;2022-12-29T07:22:52;37.40;;;11.15;;
14294;SDS011;7231;59.370;18.016;2022-12-29T07:25:20;35.75;;;11.50;;
14294;SDS011;7231;59.370;18.016;2022-12-29T07:27:47;39.75;;;11.52;;
14294;SDS011;7231;59.370;18.016;2022-12-29T07:30:16;29.77;;;11.00;;
14294;SDS011;7231;59.370;18.016;2022-12-29T07:32:44;27.55;;;10.95;;
14294;SDS011;7231;59.370;18.016;2022-12-29T07:35:13;40.75;;;11.48;;
14294;SDS011;7231;59.370;18.016;2022-12-29T07:37:43;57.42;;;12.32;;
14294;SDS011;7231;59.370;18.016;2022-12-29T07:40:11;31.40;;;10.82;;
14294;SDS011;7231;59.370;18.016;2022-12-29T07:42:39;36.28;;;11.52;;
14294;SDS011;7231;59.370;18.016;2022-12-29T07:45:08;40.15;;;11.70;;
14294;SDS011;7231;59.370;18.016;2022-12-29T07:47:36;33.72;;;11.20;;
14294;SDS011;7231;59.370;18.016;2022-12-29T07:50:05;26.85;;;9.70;;
14294;SDS011;7231;59.370;18.016;2022-12-29T07:52:35;30.25;;;10.50;;
14294;SDS011;7231;59.370;18.016;2022-12-29T07:55:03;33.97;;;10.02;;
14294;SDS011;7231;59.370;18.016;2022-12-29T07:57:31;29.52;;;9.40;;
14294;SDS011;7231;59.370;18.016;2022-12-29T07:59:59;33.95;;;10.13;;
14294;SDS011;7231;59.370;18.016;2022-12-29T08:02:27;25.13;;;9.95;;
14294;SDS011;7231;59.370;18.016;2022-12-29T08:04:56;24.80;;;8.73;;
14294;SDS011;7231;59.370;18.016;2022-12-29T08:07:24;27.05;;;8.65;;
14294;SDS011;7231;59.370;18.016;2022-12-29T08:09:53;28.02;;;9.65;;
14294;SDS011;7231;59.370;18.016;2022-12-29T08:12:21;21.00;;;8.45;;
14294;SDS011;7231;59.370;18.016;2022-12-29T08:14:49;21.77;;;8.85;;
14294;SDS011;7231;59.370;18.016;2022-12-29T08:17:17;21.63;;;7.85;;
14294;SDS011;7231;59.370;18.016;2022-12-29T08:19:45;20.15;;;8.45;;
14294;SDS011;7231;59.370;18.016;2022-12-29T08:22:13;18.80;;;7.50;;
14294;SDS011;7231;59.370;18.016;2022-12-29T08:24:41;13.18;;;7.25;;
14294;SDS011;7231;59.370;18.016;2022-12-29T08:27:10;18.40;;;7.32;;
14294;SDS011;7231;59.370;18.016;2022-12-29T08:29:46;11.98;;;6.15;;
14294;SDS011;7231;59.370;18.016;2022-12-29T08:32:14;22.35;;;6.90;;
14294;SDS011;7231;59.370;18.016;2022-12-29T08:34:42;15.48;;;6.30;;
14294;SDS011;7231;59.370;18.016;2022-12-29T08:37:10;15.27;;;6.28;;
14294;SDS011;7231;59.370;18.016;2022-12-29T08:39:38;13.07;;;6.45;;
14294;SDS011;7231;59.370;18.016;2022-12-29T08:42:06;12.82;;;5.47;;
14294;SDS011;7231;59.370;18.016;2022-12-29T08:44:35;13.05;;;5.97;;
14294;SDS011;7231;59.370;18.016;2022-12-29T08:47:03;12.63;;;6.00;;
14294;SDS011;7231;59.370;18.016;2022-12-29T08:49:31;10.32;;;5.75;;
14294;SDS011;7231;59.370;18.016;2022-12-29T08:51:59;9.65;;;5.32;;
14294;SDS011;7231;59.370;18.016;2022-12-29T08:54:27;13.60;;;6.03;;
14294;SDS011;7231;59.370;18.016;2022-12-29T08:56:55;13.85;;;6.13;;
14294;SDS011;7231;59.370;18.016;2022-12-29T08:59:23;11.88;;;6.35;;
14294;SDS011;7231;59.370;18.016;2022-12-29T09:01:52;14.88;;;6.60;;
14294;SDS011;7231;59.370;18.016;2022-12-29T09:04:21;13.35;;;5.68;;
14294;SDS011;7231;59.370;18.016;2022-12-29T09:06:50;11.68;;;5.93;;
14294;SDS011;7231;59.370;18.016;2022-12-29T09:09:18;11.20;;;5.95;;
14294;SDS011;7231;59.370;18.016;2022-12-29T09:11:46;11.82;;;5.30;;
14294;SDS011;7231;59.370;18.016;2022-12-29T09:14:14;12.45;;;5.82;;
14294;SDS011;7231;59.370;18.016;2022-12-29T09:16:42;12.55;;;5.13;;
14294;SDS011;7231;59.370;18.016;2022-12-29T09:19:29;10.27;;;5.43;;
14294;SDS011;7231;59.370;18.016;2022-12-29T09:21:57;9.75;;;4.70;;
14294;SDS011;7231;59.370;18.016;2022-12-29T09:24:25;9.85;;;4.75;;
14294;SDS011;7231;59.370;18.016;2022-12-29T09:26:53;8.88;;;4.47;;
14294;SDS011;7231;59.370;18.016;2022-12-29T09:29:21;9.20;;;4.10;;
14294;SDS011;7231;59.370;18.016;2022-12-29T09:31:49;5.10;;;3.63;;
14294;SDS011;7231;59.370;18.016;2022-12-29T09:34:17;10.75;;;3.67;;
14294;SDS011;7231;59.370;18.016;2022-12-29T09:36:47;9.55;;;3.67;;
14294;SDS011;7231;59.370;18.016;2022-12-29T09:39:14;9.60;;;3.45;;
14294;SDS011;7231;59.370;18.016;2022-12-29T09:41:43;5.93;;;3.15;;
14294;SDS011;7231;59.370;18.016;2022-12-29T09:44:17;9.90;;;3.10;;
14294;SDS011;7231;59.370;18.016;2022-12-29T09:46:51;9.63;;;2.90;;
14294;SDS011;7231;59.370;18.016;2022-12-29T09:49:24;7.35;;;3.10;;
14294;SDS011;7231;59.370;18.016;2022-12-29T09:51:59;7.88;;;3.60;;
14294;SDS011;7231;59.370;18.016;2022-12-29T09:54:38;4.45;;;3.22;;
14294;SDS011;7231;59.370;18.016;2022-12-29T09:57:18;8.93;;;3.78;;
14294;SDS011;7231;59.370;18.016;2022-12-29T09:59:52;8.90;;;3.80;;
14294;SDS011;7231;59.370;18.016;2022-12-29T10:02:28;9.82;;;4.30;;
14294;SDS011;7231;59.370;18.016;2022-12-29T10:05:00;10.23;;;4.70;;
14294;SDS011;7231;59.370;18.016;2022-12-29T10:07:33;7.93;;;4.65;;
14294;SDS011;7231;59.370;18.016;2022-12-29T10:10:18;8.52;;;4.82;;
14294;SDS011;7231;59.370;18.016;2022-12-29T10:13:02;12.93;;;5.93;;
14294;SDS011;7231;59.370;18.016;2022-12-29T10:15:43;12.95;;;6.32;;
14294;SDS011;7231;59.370;18.016;2022-12-29T10:18:36;11.30;;;6.35;;
14294;SDS011;7231;59.370;18.016;2022-12-29T10:21:17;18.70;;;7.22;;
14294;SDS011;7231;59.370;18.016;2022-12-29T10:23:56;13.32;;;5.22;;
14294;SDS011;7231;59.370;18.016;2022-12-29T10:26:26;14.13;;;6.18;;
14294;SDS011;7231;59.370;18.016;2022-12-29T10:28:56;12.80;;;6.38;;
14294;SDS011;7231;59.370;18.016;2022-12-29T10:31:32;14.98;;;6.88;;
14294;SDS011;7231;59.370;18.016;2022-12-29T10:34:06;12.18;;;6.05;;
14294;SDS011;7231;59.370;18.016;2022-12-29T10:36:41;15.40;;;6.30;;
14294;SDS011;7231;59.370;18.016;2022-12-29T10:39:23;15.68;;;6.22;;
14294;SDS011;7231;59.370;18.016;2022-12-29T10:41:59;13.65;;;5.28;;
14294;SDS011;7231;59.370;18.016;2022-12-29T10:44:35;13.18;;;5.18;;
14294;SDS011;7231;59.370;18.016;2022-12-29T10:47:03;13.55;;;5.18;;
14294;SDS011;7231;59.370;18.016;2022-12-29T10:49:36;12.25;;;5.32;;
14294;SDS011;7231;59.370;18.016;2022-12-29T10:52:07;12.55;;;4.50;;
14294;SDS011;7231;59.370;18.016;2022-12-29T10:54:38;13.00;;;5.07;;
14294;SDS011;7231;59.370;18.016;2022-12-29T10:57:14;9.25;;;4.50;;
14294;SDS011;7231;59.370;18.016;2022-12-29T10:59:51;11.15;;;4.20;;
14294;SDS011;7231;59.370;18.016;2022-12-29T11:02:23;13.35;;;4.35;;
14294;SDS011;7231;59.370;18.016;2022-12-29T11:05:06;9.55;;;4.60;;
14294;SDS011;7231;59.370;18.016;2022-12-29T11:07:41;10.57;;;4.30;;
14294;SDS011;7231;59.370;18.016;2022-12-29T11:10:19;7.82;;;4.32;;
14294;SDS011;7231;59.370;18.016;2022-12-29T11:12:58;6.15;;;3.83;;
14294;SDS011;7231;59.370;18.016;2022-12-29T11:15:27;6.55;;;3.90;;
14294;SDS011;7231;59.370;18.016;2022-12-29T11:18:08;5.45;;;3.90;;
14294;SDS011;7231;59.370;18.016;2022-12-29T11:20:45;6.93;;;3.47;;
14294;SDS011;7231;59.370;18.016;2022-12-29T11:23:24;4.07;;;3.40;;
14294;SDS011;7231;59.370;18.016;2022-12-29T11:26:07;5.90;;;2.90;;
14294;SDS011;7231;59.370;18.016;2022-12-29T11:28:41;5.78;;;3.20;;
14294;SDS011;7231;59.370;18.016;2022-12-29T11:31:10;3.92;;;2.75;;
14294;SDS011;7231;59.370;18.016;2022-12-29T11:33:43;4.78;;;3.00;;
14294;SDS011;7231;59.370;18.016;2022-12-29T11:36:12;4.43;;;2.90;;
14294;SDS011;7231;59.370;18.016;2022-12-29T11:38:45;4.05;;;2.92;;
14294;SDS011;7231;59.370;18.016;2022-12-29T11:41:20;4.10;;;3.00;;
14294;SDS011;7231;59.370;18.016;2022-12-29T11:43:50;4.18;;;3.17;;
14294;SDS011;7231;59.370;18.016;2022-12-29T11:46:22;5.00;;;3.65;;
14294;SDS011;7231;59.370;18.016;2022-12-29T11:48:53;4.80;;;2.90;;
14294;SDS011;7231;59.370;18.016;2022-12-29T11:51:25;4.70;;;3.38;;
14294;SDS011;7231;59.370;18.016;2022-12-29T11:53:56;6.82;;;3.83;;
14294;SDS011;7231;59.370;18.016;2022-12-29T11:56:34;6.13;;;3.42;;
14294;SDS011;7231;59.370;18.016;2022-12-29T12:05:11;5.50;;;3.53;;
14294;SDS011;7231;59.370;18.016;2022-12-29T12:07:45;4.00;;;3.60;;
14294;SDS011;7231;59.370;18.016;2022-12-29T12:10:18;7.43;;;3.72;;
14294;SDS011;7231;59.370;18.016;2022-12-29T12:12:53;8.13;;;3.90;;
14294;SDS011;7231;59.370;18.016;2022-12-29T12:15:30;3.90;;;3.50;;
14294;SDS011;7231;59.370;18.016;2022-12-29T12:18:14;9.38;;;4.45;;
14294;SDS011;7231;59.370;18.016;2022-12-29T12:20:48;4.25;;;3.45;;
14294;SDS011;7231;59.370;18.016;2022-12-29T12:23:24;5.22;;;3.50;;
14294;SDS011;7231;59.370;18.016;2022-12-29T12:25:59;5.05;;;3.55;;
14294;SDS011;7231;59.370;18.016;2022-12-29T12:28:36;6.00;;;3.83;;
14294;SDS011;7231;59.370;18.016;2022-12-29T12:31:13;5.35;;;4.18;;
14294;SDS011;7231;59.370;18.016;2022-12-29T12:33:46;6.07;;;4.18;;
14294;SDS011;7231;59.370;18.016;2022-12-29T12:36:24;6.00;;;4.03;;
14294;SDS011;7231;59.370;18.016;2022-12-29T12:39:05;4.25;;;3.50;;
14294;SDS011;7231;59.370;18.016;2022-12-29T12:41:41;4.43;;;3.38;;
14294;SDS011;7231;59.370;18.016;2022-12-29T12:44:23;5.13;;;3.70;;
14294;SDS011;7231;59.370;18.016;2022-12-29T12:50:13;4.20;;;3.00;;
14294;SDS011;7231;59.370;18.016;2022-12-29T12:52:55;3.58;;;3.15;;
14294;SDS011;7231;59.370;18.016;2022-12-29T12:55:38;8.02;;;3.47;;
14294;SDS011;7231;59.370;18.016;2022-12-29T12:58:20;6.32;;;3.45;;
14294;SDS011;7231;59.370;18.016;2022-12-29T13:01:01;5.28;;;3.33;;
14294;SDS011;7231;59.370;18.016;2022-12-29T13:03:44;6.75;;;3.80;;
14294;SDS011;7231;59.370;18.016;2022-12-29T13:06:24;4.47;;;3.75;;
14294;SDS011;7231;59.370;18.016;2022-12-29T13:09:09;5.90;;;3.75;;
14294;SDS011;7231;59.370;18.016;2022-12-29T13:11:56;4.75;;;3.97;;
14294;SDS011;7231;59.370;18.016;2022-12-29T13:14:37;4.50;;;3.72;;
14294;SDS011;7231;59.370;18.016;2022-12-29T13:17:18;6.18;;;4.00;;
14294;SDS011;7231;59.370;18.016;2022-12-29T13:19:55;4.85;;;3.70;;
14294;SDS011;7231;59.370;18.016;2022-12-29T13:22:30;5.10;;;4.15;;
14294;SDS011;7231;59.370;18.016;2022-12-29T13:25:16;6.57;;;3.78;;
14294;SDS011;7231;59.370;18.016;2022-12-29T13:27:55;5.32;;;4.28;;
14294;SDS011;7231;59.370;18.016;2022-12-29T13:30:33;5.65;;;4.15;;
14294;SDS011;7231;59.370;18.016;2022-12-29T13:33:13;3.50;;;2.97;;
14294;SDS011;7231;59.370;18.016;2022-12-29T13:35:53;5.25;;;3.75;;
14294;SDS011;7231;59.370;18.016;2022-12-29T13:38:28;5.20;;;3.92;;
14294;SDS011;7231;59.370;18.016;2022-12-29T13:41:01;4.20;;;3.72;;
14294;SDS011;7231;59.370;18.016;2022-12-29T13:43:34;3.83;;;3.42;;
14294;SDS011;7231;59.370;18.016;2022-12-29T13:46:07;3.70;;;3.00;;
14294;SDS011;7231;59.370;18.016;2022-12-29T13:48:42;4.00;;;3.00;;
14294;SDS011;7231;59.370;18.016;2022-12-29T13:51:13;3.83;;;3.35;;
14294;SDS011;7231;59.370;18.016;2022-12-29T13:54:00;3.20;;;2.60;;
14294;SDS011;7231;59.370;18.016;2022-12-29T13:56:38;5.65;;;2.78;;
14294;SDS011;7231;59.370;18.016;2022-12-29T13:59:13;3.05;;;2.65;;
14294;SDS011;7231;59.370;18.016;2022-12-29T14:01:48;5.68;;;2.60;;
14294;SDS011;7231;59.370;18.016;2022-12-29T14:04:24;4.82;;;2.67;;
14294;SDS011;7231;59.370;18.016;2022-12-29T14:07:00;3.83;;;2.85;;
14294;SDS011;7231;59.370;18.016;2022-12-29T14:09:40;3.17;;;2.50;;
14294;SDS011;7231;59.370;18.016;2022-12-29T14:12:18;4.43;;;2.90;;
14294;SDS011;7231;59.370;18.016;2022-12-29T14:14:48;5.13;;;3.28;;
14294;SDS011;7231;59.370;18.016;2022-12-29T14:17:18;4.18;;;3.17;;
14294;SDS011;7231;59.370;18.016;2022-12-29T14:19:52;4.15;;;3.30;;
14294;SDS011;7231;59.370;18.016;2022-12-29T14:22:25;6.13;;;3.55;;
14294;SDS011;7231;59.370;18.016;2022-12-29T14:24:58;4.18;;;3.10;;
14294;SDS011;7231;59.370;18.016;2022-12-29T14:33:26;4.35;;;3.30;;
14294;SDS011;7231;59.370;18.016;2022-12-29T14:35:57;4.88;;;3.50;;
14294;SDS011;7231;59.370;18.016;2022-12-29T14:38:52;5.32;;;3.83;;
14294;SDS011;7231;59.370;18.016;2022-12-29T14:41:24;5.43;;;3.47;;
14294;SDS011;7231;59.370;18.016;2022-12-29T14:44:01;6.65;;;4.43;;
14294;SDS011;7231;59.370;18.016;2022-12-29T14:46:45;7.40;;;4.20;;
14294;SDS011;7231;59.370;18.016;2022-12-29T14:49:17;5.72;;;4.20;;
14294;SDS011;7231;59.370;18.016;2022-12-29T14:51:51;7.82;;;4.32;;
14294;SDS011;7231;59.370;18.016;2022-12-29T14:54:34;7.47;;;4.90;;
14294;SDS011;7231;59.370;18.016;2022-12-29T14:57:14;7.63;;;5.40;;
14294;SDS011;7231;59.370;18.016;2022-12-29T14:59:48;8.43;;;5.88;;
14294;SDS011;7231;59.370;18.016;2022-12-29T15:02:22;9.10;;;6.30;;
14294;SDS011;7231;59.370;18.016;2022-12-29T15:04:53;10.98;;;7.35;;
14294;SDS011;7231;59.370;18.016;2022-12-29T15:07:28;10.82;;;7.50;;
14294;SDS011;7231;59.370;18.016;2022-12-29T15:09:58;13.32;;;7.35;;
14294;SDS011;7231;59.370;18.016;2022-12-29T15:12:33;13.18;;;7.95;;
14294;SDS011;7231;59.370;18.016;2022-12-29T15:17:56;13.40;;;9.00;;
14294;SDS011;7231;59.370;18.016;2022-12-29T15:20:24;13.35;;;7.93;;
14294;SDS011;7231;59.370;18.016;2022-12-29T15:22:56;11.20;;;7.85;;
14294;SDS011;7231;59.370;18.016;2022-12-29T15:25:28;12.07;;;8.00;;
14294;SDS011;7231;59.370;18.016;2022-12-29T15:27:59;14.93;;;8.80;;
14294;SDS011;7231;59.370;18.016;2022-12-29T15:30:29;14.90;;;8.07;;
14294;SDS011;7231;59.370;18.016;2022-12-29T15:32:57;10.68;;;7.45;;